createdAt,value
2018-06-21T00:00:39.152Z,69.73
2018-06-21T00:01:42.482Z,69.71
2018-06-21T00:02:45.248Z,70.42
2018-06-21T00:03:48.021Z,69.97
2018-06-21T00:04:50.828Z,69.76
2018-06-21T00:05:54.565Z,70.28
2018-06-21T00:06:57.320Z,70.71
2018-06-21T00:08:00.603Z,70.00
2018-06-21T00:09:03.481Z,70.42
2018-06-21T00:10:06.301Z,70.48
2018-06-21T00:11:09.149Z,70.74
2018-06-21T00:12:11.952Z,71.02
2018-06-21T00:13:14.762Z,70.74
2018-06-21T00:14:18.062Z,70.87
2018-06-21T00:15:20.911Z,71.23
2018-06-21T00:16:26.851Z,71.64
2018-06-21T00:17:29.614Z,71.40
2018-06-21T00:18:32.466Z,71.48
2018-06-21T00:19:35.277Z,71.26
2018-06-21T00:20:38.548Z,71.30
2018-06-21T00:21:41.392Z,71.05
2018-06-21T00:22:44.234Z,71.55
2018-06-21T00:23:47.070Z,70.90
2018-06-21T00:24:49.834Z,71.87
2018-06-21T00:25:52.611Z,71.95
2018-06-21T00:26:55.805Z,71.93
2018-06-21T00:27:58.632Z,72.12
2018-06-21T00:29:01.414Z,71.89
2018-06-21T00:30:04.220Z,71.36
2018-06-21T00:31:07.221Z,71.04
2018-06-21T00:33:23.684Z,72.01
2018-06-21T00:34:26.476Z,71.94
2018-06-21T00:35:30.558Z,72.04
2018-06-21T00:36:34.249Z,71.34
2018-06-21T00:37:39.103Z,71.02
2018-06-21T00:38:42.428Z,71.42
2018-06-21T00:39:46.252Z,72.08
2018-06-21T00:40:49.015Z,72.17
2018-06-21T00:41:51.792Z,71.13
2018-06-21T00:42:54.621Z,71.43
2018-06-21T00:43:57.457Z,71.39
2018-06-21T00:45:00.274Z,71.70
2018-06-21T00:46:03.540Z,72.01
2018-06-21T00:47:06.376Z,71.83
2018-06-21T00:48:09.770Z,71.83
2018-06-21T00:49:12.552Z,71.43
2018-06-21T00:50:15.335Z,72.10
2018-06-21T00:51:18.103Z,71.21
2018-06-21T00:52:21.346Z,71.13
2018-06-21T00:53:24.136Z,71.16
2018-06-21T00:54:26.916Z,71.40
2018-06-21T00:55:29.692Z,71.08
2018-06-21T00:56:32.500Z,72.59
2018-06-21T00:57:35.366Z,72.44
2018-06-21T00:58:39.353Z,72.58
2018-06-21T00:59:42.115Z,72.37
2018-06-21T01:00:44.923Z,72.19
2018-06-21T01:01:48.506Z,71.77
2018-06-21T01:02:51.351Z,72.58
2018-06-21T01:03:54.235Z,72.14
2018-06-21T01:04:57.474Z,71.86
2018-06-21T01:06:01.029Z,72.03
2018-06-21T01:07:04.169Z,72.30
2018-06-21T01:08:07.017Z,72.19
2018-06-21T01:09:09.838Z,71.77
2018-06-21T01:10:12.885Z,72.48
2018-06-21T01:11:16.165Z,72.24
2018-06-21T01:12:21.937Z,72.33
2018-06-21T01:13:24.704Z,72.65
2018-06-21T01:14:27.463Z,72.23
2018-06-21T01:15:30.660Z,71.96
2018-06-21T01:16:33.470Z,72.42
2018-06-21T01:17:36.688Z,72.59
2018-06-21T01:18:39.483Z,72.68
2018-06-21T01:19:42.327Z,72.40
2018-06-21T01:20:46.213Z,71.25
2018-06-21T01:22:57.236Z,70.99
2018-06-21T01:24:00.048Z,71.79
2018-06-21T01:26:16.088Z,71.19
2018-06-21T01:27:19.643Z,71.58
2018-06-21T01:28:22.445Z,71.82
2018-06-21T01:29:25.662Z,71.87
2018-06-21T01:30:28.432Z,71.93
2018-06-21T01:31:31.215Z,72.35
2018-06-21T01:32:34.110Z,72.31
2018-06-21T01:33:36.989Z,72.17
2018-06-21T01:34:39.787Z,71.99
2018-06-21T01:35:43.513Z,72.54
2018-06-21T01:36:46.936Z,72.45
2018-06-21T01:37:49.714Z,72.73
2018-06-21T01:38:52.763Z,72.64
2018-06-21T01:39:55.572Z,73.01
2018-06-21T01:40:58.342Z,72.53
2018-06-21T01:42:01.574Z,73.02
2018-06-21T01:43:04.357Z,73.17
2018-06-21T01:44:07.186Z,72.60
2018-06-21T01:45:09.932Z,73.17
2018-06-21T01:46:12.674Z,73.15
2018-06-21T01:47:16.482Z,73.62
2018-06-21T01:48:19.647Z,73.86
2018-06-21T01:49:22.611Z,73.91
2018-06-21T01:50:25.440Z,73.89
2018-06-21T01:51:28.246Z,73.61
2018-06-21T01:52:30.993Z,74.36
2018-06-21T01:53:33.758Z,73.75
2018-06-21T01:54:37.429Z,74.35
2018-06-21T01:55:40.199Z,74.57
2018-06-21T01:56:43.001Z,74.27
2018-06-21T01:57:45.772Z,74.53
2018-06-21T01:58:48.525Z,73.96
2018-06-21T01:59:51.271Z,74.23
2018-06-21T02:00:54.562Z,74.16
2018-06-21T02:01:57.289Z,74.38
2018-06-21T02:03:00.095Z,73.75
2018-06-21T02:04:02.872Z,74.43
2018-06-21T02:05:05.745Z,73.57
2018-06-21T02:06:08.521Z,74.23
2018-06-21T02:07:11.821Z,73.55
2018-06-21T02:08:14.632Z,74.06
2018-06-21T02:09:52.171Z,74.05
2018-06-21T02:10:54.957Z,74.22
2018-06-21T02:11:57.741Z,73.88
2018-06-21T02:13:00.566Z,74.65
2018-06-21T02:14:06.818Z,74.49
2018-06-21T02:15:09.601Z,73.90
2018-06-21T02:16:12.408Z,73.83
2018-06-21T02:17:16.189Z,74.09
2018-06-21T02:18:19.016Z,73.53
2018-06-21T02:19:21.783Z,73.71
2018-06-21T02:20:24.545Z,74.07
2018-06-21T02:21:27.353Z,74.52
2018-06-21T02:22:30.143Z,74.23
2018-06-21T02:23:34.370Z,74.88
2018-06-21T02:24:37.104Z,74.80
2018-06-21T02:25:40.381Z,75.16
2018-06-21T02:26:43.149Z,75.53
2018-06-21T02:27:45.919Z,74.76
2018-06-21T02:28:48.728Z,74.40
2018-06-21T02:29:51.513Z,75.07
2018-06-21T02:30:54.325Z,74.87
2018-06-21T02:31:57.601Z,74.63
2018-06-21T02:33:00.421Z,74.60
2018-06-21T02:34:03.166Z,74.44
2018-06-21T02:35:05.951Z,74.25
2018-06-21T02:36:08.703Z,74.85
2018-06-21T02:37:11.549Z,74.20
2018-06-21T02:38:15.666Z,74.04
2018-06-21T02:39:18.401Z,74.30
2018-06-21T02:40:21.220Z,73.68
2018-06-21T02:41:23.958Z,73.51
2018-06-21T02:42:26.730Z,74.34
2018-06-21T02:43:29.557Z,74.06
2018-06-21T02:44:32.707Z,74.19
2018-06-21T02:45:35.511Z,74.33
2018-06-21T02:46:38.317Z,73.86
2018-06-21T02:47:41.775Z,74.60
2018-06-21T02:48:44.557Z,74.91
2018-06-21T02:49:47.354Z,74.15
2018-06-21T02:50:50.565Z,74.84
2018-06-21T02:51:53.467Z,75.01
2018-06-21T02:52:56.240Z,74.61
2018-06-21T02:54:00.516Z,74.78
2018-06-21T02:55:04.187Z,74.53
2018-06-21T02:56:07.258Z,74.33
2018-06-21T02:57:11.154Z,74.95
2018-06-21T02:58:13.972Z,74.92
2018-06-21T02:59:16.777Z,75.18
2018-06-21T03:00:19.560Z,74.76
2018-06-21T03:01:22.343Z,75.07
2018-06-21T03:02:25.108Z,74.76
2018-06-21T03:03:28.291Z,75.38
2018-06-21T03:04:31.102Z,74.73
2018-06-21T03:05:33.914Z,75.09
2018-06-21T03:06:36.772Z,75.02
2018-06-21T03:07:39.543Z,75.38
2018-06-21T03:08:43.347Z,74.96
2018-06-21T03:09:46.560Z,75.40
2018-06-21T03:10:50.343Z,75.10
2018-06-21T03:11:53.175Z,75.89
2018-06-21T03:12:55.937Z,75.38
2018-06-21T03:13:58.675Z,75.11
2018-06-21T03:15:01.529Z,75.44
2018-06-21T03:16:04.392Z,75.78
2018-06-21T03:17:07.757Z,76.04
2018-06-21T03:18:10.511Z,76.64
2018-06-21T03:19:14.290Z,75.92
2018-06-21T03:20:20.019Z,76.19
2018-06-21T03:21:23.297Z,75.51
2018-06-21T03:22:26.054Z,75.59
2018-06-21T03:23:29.738Z,76.44
2018-06-21T03:24:33.539Z,76.47
2018-06-21T03:25:36.331Z,76.28
2018-06-21T03:26:39.188Z,75.84
2018-06-21T03:27:42.370Z,76.00
2018-06-21T03:28:45.169Z,76.94
2018-06-21T03:29:47.970Z,76.79
2018-06-21T03:30:50.754Z,76.25
2018-06-21T03:31:53.626Z,76.19
2018-06-21T03:32:56.381Z,76.71
2018-06-21T03:33:59.620Z,75.91
2018-06-21T03:35:02.475Z,76.96
2018-06-21T03:36:05.232Z,76.80
2018-06-21T03:37:08.062Z,75.85
2018-06-21T03:38:10.830Z,76.45
2018-06-21T03:39:13.749Z,75.90
2018-06-21T03:40:18.118Z,76.26
2018-06-21T03:41:20.877Z,75.66
2018-06-21T03:42:23.667Z,76.38
2018-06-21T03:43:26.459Z,76.43
2018-06-21T03:44:29.284Z,76.59
2018-06-21T03:45:32.102Z,75.70
2018-06-21T03:46:35.312Z,75.46
2018-06-21T03:47:38.092Z,75.87
2018-06-21T03:48:41.980Z,75.58
2018-06-21T03:49:44.729Z,74.72
2018-06-21T03:50:47.459Z,74.72
2018-06-21T03:51:50.250Z,74.51
2018-06-21T03:52:53.213Z,75.00
2018-06-21T03:53:55.948Z,75.50
2018-06-21T03:54:58.682Z,75.15
2018-06-21T03:56:01.463Z,75.89
2018-06-21T03:57:04.273Z,76.26
2018-06-21T03:58:07.054Z,76.43
2018-06-21T03:59:10.219Z,76.12
2018-06-21T04:00:12.986Z,75.96
2018-06-21T04:01:15.783Z,75.89
2018-06-21T04:02:18.649Z,76.45
2018-06-21T04:03:21.424Z,76.68
2018-06-21T04:04:25.332Z,76.15
2018-06-21T04:05:28.639Z,76.76
2018-06-21T04:06:31.492Z,76.30
2018-06-21T04:07:34.324Z,76.53
2018-06-21T04:08:37.134Z,77.18
2018-06-21T04:09:41.124Z,76.82
2018-06-21T04:10:43.884Z,76.74
2018-06-21T04:11:47.177Z,76.13
2018-06-21T04:12:49.962Z,75.75
2018-06-21T04:13:52.715Z,76.31
2018-06-21T04:14:56.176Z,75.27
2018-06-21T04:15:59.509Z,75.67
2018-06-21T04:17:03.751Z,75.53
2018-06-21T04:18:06.926Z,75.06
2018-06-21T04:19:11.086Z,75.12
2018-06-21T04:20:13.899Z,75.41
2018-06-21T04:21:16.831Z,75.17
2018-06-21T04:22:20.608Z,74.86
2018-06-21T04:23:23.398Z,76.01
2018-06-21T04:24:26.224Z,75.74
2018-06-21T04:25:30.090Z,75.37
2018-06-21T04:26:32.891Z,75.77
2018-06-21T04:27:35.679Z,75.67
2018-06-21T04:28:38.746Z,75.72
2018-06-21T04:29:43.051Z,76.20
2018-06-21T04:30:46.628Z,75.34
2018-06-21T04:31:49.462Z,75.27
2018-06-21T04:32:52.242Z,74.92
2018-06-21T04:33:55.041Z,74.91
2018-06-21T04:34:58.868Z,74.70
2018-06-21T04:36:02.200Z,75.12
2018-06-21T04:37:05.179Z,74.74
2018-06-21T04:38:08.298Z,74.80
2018-06-21T04:39:11.359Z,75.02
2018-06-21T04:40:14.319Z,75.15
2018-06-21T04:41:18.311Z,74.74
2018-06-21T04:42:21.339Z,75.21
2018-06-21T04:43:24.368Z,75.18
2018-06-21T04:44:27.427Z,74.84
2018-06-21T04:45:30.945Z,74.54
2018-06-21T04:46:33.783Z,74.39
2018-06-21T04:47:37.129Z,74.98
2018-06-21T04:48:40.010Z,75.02
2018-06-21T04:49:44.724Z,73.75
2018-06-21T04:50:47.619Z,74.35
2018-06-21T04:51:50.628Z,74.17
2018-06-21T04:52:53.677Z,73.63
2018-06-21T04:53:57.815Z,73.51
2018-06-21T04:55:00.702Z,74.31
2018-06-21T04:56:03.673Z,74.01
2018-06-21T04:57:07.586Z,74.36
2018-06-21T04:58:11.318Z,73.96
2018-06-21T04:59:14.771Z,74.16
2018-06-21T05:00:17.708Z,75.51
2018-06-21T05:01:20.655Z,75.72
2018-06-21T05:02:24.179Z,75.68
2018-06-21T05:03:27.635Z,75.66
2018-06-21T05:04:30.591Z,75.33
2018-06-21T05:05:33.857Z,74.78
2018-06-21T05:06:36.801Z,75.00
2018-06-21T05:07:39.633Z,76.22
2018-06-21T05:08:43.394Z,75.06
2018-06-21T05:09:46.591Z,75.10
2018-06-21T05:10:49.517Z,74.74
2018-06-21T05:11:52.767Z,74.87
2018-06-21T05:12:56.441Z,74.41
2018-06-21T05:13:59.272Z,74.29
2018-06-21T05:15:02.192Z,74.27
2018-06-21T05:16:05.099Z,74.81
2018-06-21T05:17:08.082Z,75.54
2018-06-21T05:18:14.344Z,75.27
2018-06-21T05:19:17.151Z,74.94
2018-06-21T05:20:19.972Z,74.90
2018-06-21T05:21:22.801Z,74.92
2018-06-21T05:22:25.603Z,74.05
2018-06-21T05:23:28.558Z,75.38
2018-06-21T05:24:33.481Z,75.25
2018-06-21T05:25:36.230Z,74.54
2018-06-21T05:26:40.558Z,75.47
2018-06-21T05:27:43.423Z,74.88
2018-06-21T05:28:46.400Z,75.17
2018-06-21T05:29:49.312Z,74.32
2018-06-21T05:30:52.663Z,74.53
2018-06-21T05:31:55.652Z,73.62
2018-06-21T05:32:58.817Z,74.40
2018-06-21T05:34:01.864Z,74.21
2018-06-21T05:35:05.584Z,74.35
2018-06-21T05:36:08.418Z,74.50
2018-06-21T05:37:12.555Z,74.18
2018-06-21T05:38:16.129Z,74.18
2018-06-21T05:39:19.590Z,74.34
2018-06-21T05:40:22.950Z,74.41
2018-06-21T05:41:25.746Z,73.96
2018-06-21T05:42:29.212Z,73.76
2018-06-21T05:43:32.513Z,73.91
2018-06-21T05:44:35.466Z,74.35
2018-06-21T05:45:38.256Z,74.61
2018-06-21T05:46:41.112Z,74.45
2018-06-21T05:47:43.957Z,74.10
2018-06-21T05:48:46.783Z,74.11
2018-06-21T05:49:49.944Z,74.26
2018-06-21T05:50:53.655Z,74.33
2018-06-21T05:51:56.416Z,73.97
2018-06-21T05:53:00.783Z,73.89
2018-06-21T05:54:03.574Z,73.59
2018-06-21T05:55:06.300Z,73.82
2018-06-21T05:56:09.449Z,74.30
2018-06-21T05:57:12.468Z,74.08
2018-06-21T05:58:15.268Z,73.78
2018-06-21T05:59:18.121Z,73.30
2018-06-21T06:00:21.637Z,73.59
2018-06-21T06:01:24.415Z,73.30
2018-06-21T06:02:27.227Z,72.43
2018-06-21T06:03:30.825Z,72.68
2018-06-21T06:04:33.577Z,72.88
2018-06-21T06:05:37.192Z,72.41
2018-06-21T06:06:40.111Z,72.43
2018-06-21T06:07:43.350Z,72.49
2018-06-21T06:08:46.150Z,73.04
2018-06-21T06:09:52.479Z,72.56
2018-06-21T06:10:55.365Z,72.22
2018-06-21T06:11:58.870Z,71.23
2018-06-21T06:13:01.694Z,71.75
2018-06-21T06:14:04.903Z,72.51
2018-06-21T06:15:07.757Z,71.55
2018-06-21T06:16:10.543Z,71.95
2018-06-21T06:17:13.382Z,71.81
2018-06-21T06:18:16.688Z,72.33
2018-06-21T06:19:19.590Z,71.22
2018-06-21T06:20:25.523Z,71.47
2018-06-21T06:21:29.375Z,71.63
2018-06-21T06:22:33.646Z,72.08
2018-06-21T06:23:36.518Z,71.63
2018-06-21T06:24:39.518Z,71.02
2018-06-21T06:25:42.378Z,70.89
2018-06-21T06:26:45.742Z,70.64
2018-06-21T06:27:48.722Z,71.03
2018-06-21T06:28:52.887Z,70.17
2018-06-21T06:29:55.727Z,70.70
2018-06-21T06:30:58.618Z,69.74
2018-06-21T06:32:01.434Z,70.35
2018-06-21T06:33:04.749Z,70.62
2018-06-21T06:34:07.529Z,71.12
2018-06-21T06:36:19.127Z,72.02
2018-06-21T06:37:21.971Z,72.62
2018-06-21T06:38:24.753Z,71.89
2018-06-21T06:39:29.534Z,71.49
2018-06-21T06:40:33.869Z,71.63
2018-06-21T06:41:36.717Z,72.33
2018-06-21T06:42:39.500Z,72.54
2018-06-21T06:43:43.142Z,71.98
2018-06-21T06:44:45.916Z,72.09
2018-06-21T06:45:49.078Z,72.40
2018-06-21T06:46:52.681Z,72.33
2018-06-21T06:47:55.514Z,72.60
2018-06-21T06:48:58.293Z,72.12
2018-06-21T06:50:01.150Z,72.00
2018-06-21T06:51:03.983Z,71.49
2018-06-21T06:52:07.586Z,71.29
2018-06-21T06:53:10.520Z,72.05
2018-06-21T06:54:13.415Z,71.88
2018-06-21T06:55:16.239Z,72.23
2018-06-21T06:56:19.009Z,71.78
2018-06-21T06:57:21.979Z,72.08
2018-06-21T06:58:27.259Z,72.62
2018-06-21T06:59:31.494Z,72.69
2018-06-21T07:00:35.004Z,71.75
2018-06-21T07:01:37.819Z,72.80
2018-06-21T07:02:40.623Z,71.88
2018-06-21T07:03:43.453Z,73.42
2018-06-21T07:04:46.685Z,73.09
2018-06-21T07:05:51.208Z,72.89
2018-06-21T07:06:54.089Z,73.39
2018-06-21T07:07:56.913Z,73.41
2018-06-21T07:09:01.472Z,73.72
2018-06-21T07:10:04.336Z,73.54
2018-06-21T07:11:07.578Z,73.22
2018-06-21T07:12:10.853Z,73.87
2018-06-21T07:13:13.700Z,74.57
2018-06-21T07:14:16.580Z,74.42
2018-06-21T07:15:19.491Z,74.91
2018-06-21T07:16:22.496Z,75.10
2018-06-21T07:17:26.138Z,74.96
2018-06-21T07:18:29.066Z,74.73
2018-06-21T07:19:32.440Z,73.75
2018-06-21T07:20:35.273Z,74.53
2018-06-21T07:21:40.059Z,74.62
2018-06-21T07:22:44.300Z,75.45
2018-06-21T07:23:47.471Z,75.30
2018-06-21T07:24:52.388Z,75.47
2018-06-21T07:25:55.187Z,76.01
2018-06-21T07:26:59.628Z,77.73
2018-06-21T07:28:02.413Z,77.58
2018-06-21T07:29:06.610Z,76.92
2018-06-21T07:30:09.949Z,77.64
2018-06-21T07:31:13.994Z,78.38
2018-06-21T07:32:16.857Z,78.42
2018-06-21T07:33:20.826Z,78.24
2018-06-21T07:34:26.503Z,77.67
2018-06-21T07:35:29.967Z,78.26
2018-06-21T07:36:33.438Z,79.13
2018-06-21T07:37:37.019Z,79.76
2018-06-21T07:38:40.381Z,80.05
2018-06-21T07:39:44.839Z,80.33
2018-06-21T07:40:47.962Z,81.14
2018-06-21T07:41:50.793Z,81.51
2018-06-21T07:42:54.928Z,81.05
2018-06-21T07:43:57.755Z,81.25
2018-06-21T07:45:01.056Z,80.69
2018-06-21T07:46:03.895Z,80.26
2018-06-21T07:47:07.120Z,81.22
2018-06-21T07:48:09.909Z,80.71
2018-06-21T07:49:12.751Z,80.96
2018-06-21T07:50:15.592Z,81.30
2018-06-21T07:51:18.452Z,81.77
2018-06-21T07:52:21.235Z,81.25
2018-06-21T07:53:24.359Z,81.25
2018-06-21T07:54:27.657Z,81.29
2018-06-21T07:55:30.550Z,81.11
2018-06-21T07:56:33.877Z,82.07
2018-06-21T07:57:36.793Z,81.52
2018-06-21T07:58:39.659Z,81.74
2018-06-21T07:59:43.559Z,82.12
2018-06-21T08:00:49.133Z,82.26
2018-06-21T08:01:55.338Z,82.38
2018-06-21T08:02:58.489Z,81.64
2018-06-21T08:04:01.526Z,81.89
2018-06-21T08:05:04.690Z,81.65
2018-06-21T08:06:07.849Z,82.70
2018-06-21T08:07:10.909Z,81.82
2018-06-21T08:08:13.730Z,82.68
2018-06-21T08:09:17.476Z,81.24
2018-06-21T08:10:20.326Z,81.96
2018-06-21T08:11:24.368Z,81.03
2018-06-21T08:12:27.166Z,81.79
2018-06-21T08:13:30.766Z,82.31
2018-06-21T08:14:34.349Z,82.55
2018-06-21T08:15:37.167Z,82.31
2018-06-21T08:16:40.676Z,82.00
2018-06-21T08:17:44.602Z,82.10
2018-06-21T08:18:49.450Z,82.61
2018-06-21T08:19:52.285Z,82.72
2018-06-21T08:20:55.079Z,82.89
2018-06-21T08:21:57.883Z,83.11
2018-06-21T08:23:01.347Z,81.89
2018-06-21T08:24:06.924Z,81.61
2018-06-21T08:25:09.775Z,81.87
2018-06-21T08:26:12.585Z,82.06
2018-06-21T08:27:16.330Z,81.21
2018-06-21T08:28:19.097Z,82.39
2018-06-21T08:29:21.896Z,82.46
2018-06-21T08:30:25.052Z,81.09
2018-06-21T08:31:27.831Z,81.53
2018-06-21T08:32:34.548Z,81.02
2018-06-21T08:33:37.337Z,81.59
2018-06-21T08:34:40.165Z,81.38
2018-06-21T08:35:43.010Z,79.39
2018-06-21T08:36:45.877Z,79.91
2018-06-21T08:37:48.745Z,78.91
2018-06-21T08:38:51.610Z,79.07
2018-06-21T08:39:54.377Z,78.00
2018-06-21T08:40:58.346Z,77.98
2018-06-21T08:42:08.103Z,78.64
2018-06-21T08:43:11.283Z,78.05
2018-06-21T08:44:14.144Z,77.98
2018-06-21T08:45:16.974Z,78.28
2018-06-21T08:46:19.823Z,77.91
2018-06-21T08:47:23.974Z,78.05
2018-06-21T08:48:27.826Z,78.06
2018-06-21T08:49:30.930Z,78.54
2018-06-21T08:50:33.712Z,77.81
2018-06-21T08:51:38.125Z,77.34
2018-06-21T08:52:41.014Z,78.03
2018-06-21T08:53:45.014Z,77.84
2018-06-21T08:54:49.633Z,77.91
2018-06-21T08:55:54.869Z,77.08
2018-06-21T08:56:57.743Z,77.22
2018-06-21T08:58:00.586Z,77.89
2018-06-21T08:59:04.045Z,78.10
2018-06-21T09:00:06.830Z,78.32
2018-06-21T09:01:10.988Z,76.95
2018-06-21T09:02:13.798Z,76.35
2018-06-21T09:03:17.553Z,77.25
2018-06-21T09:04:21.356Z,76.99
2018-06-21T09:05:24.354Z,76.86
2018-06-21T09:06:27.242Z,76.77
2018-06-21T09:07:31.347Z,75.12
2018-06-21T09:08:37.985Z,75.49
2018-06-21T09:09:41.497Z,75.45
2018-06-21T09:10:44.442Z,75.50
2018-06-21T09:11:47.259Z,74.46
2018-06-21T09:12:50.079Z,74.73
2018-06-21T09:13:53.308Z,74.68
2018-06-21T09:14:56.147Z,73.59
2018-06-21T09:15:58.939Z,73.18
2018-06-21T09:17:02.728Z,73.72
2018-06-21T09:18:06.285Z,72.39
2018-06-21T09:19:10.506Z,72.67
2018-06-21T09:20:13.350Z,72.01
2018-06-21T09:21:16.259Z,72.48
2018-06-21T09:22:19.156Z,71.99
2018-06-21T09:23:22.079Z,72.16
2018-06-21T09:24:25.914Z,73.08
2018-06-21T09:25:30.827Z,72.45
2018-06-21T09:26:34.473Z,72.55
2018-06-21T09:27:37.345Z,71.63
2018-06-21T09:28:40.335Z,71.12
2018-06-21T09:29:43.165Z,71.06
2018-06-21T09:30:46.071Z,71.69
2018-06-21T09:31:49.323Z,71.04
2018-06-21T09:32:52.135Z,70.27
2018-06-21T09:33:57.104Z,70.93
2018-06-21T09:35:00.100Z,70.08
2018-06-21T09:36:04.079Z,71.50
2018-06-21T09:37:10.445Z,70.66
2018-06-21T09:38:18.444Z,71.06
2018-06-21T09:39:26.364Z,70.31
2018-06-21T09:40:35.495Z,71.06
2018-06-21T09:43:50.301Z,71.85
2018-06-21T09:44:59.299Z,70.70
2018-06-21T09:46:06.917Z,67.44
2018-06-21T09:49:19.257Z,68.31
2018-06-21T09:50:22.129Z,64.04
2018-06-21T09:51:26.498Z,62.83
2018-06-21T09:52:29.320Z,62.85
2018-06-21T09:53:32.473Z,63.65
2018-06-21T09:54:37.492Z,61.61
2018-06-21T09:55:42.554Z,61.75
2018-06-21T09:56:46.656Z,60.57
2018-06-21T09:57:50.698Z,60.38
2018-06-21T09:58:54.051Z,59.99
2018-06-21T09:59:57.572Z,59.06
2018-06-21T10:01:05.073Z,61.04
2018-06-21T10:02:08.354Z,61.18
2018-06-21T10:03:14.334Z,60.90
2018-06-21T10:04:17.173Z,61.18
2018-06-21T10:05:20.802Z,60.78
2018-06-21T10:06:24.360Z,60.86
2018-06-21T10:07:27.229Z,58.71
2018-06-21T10:08:30.414Z,59.02
2018-06-21T10:09:34.022Z,58.47
2018-06-21T10:10:39.913Z,58.32
2018-06-21T10:11:44.115Z,57.28
2018-06-21T10:12:48.912Z,57.92
2018-06-21T10:13:52.896Z,57.58
2018-06-21T10:14:56.017Z,57.25
2018-06-21T10:15:58.801Z,57.51
2018-06-21T10:17:01.685Z,57.94
2018-06-21T10:18:06.221Z,57.61
2018-06-21T10:19:09.193Z,56.60
2018-06-21T10:20:13.490Z,57.33
2018-06-21T10:21:16.592Z,57.25
2018-06-21T10:22:20.265Z,54.67
2018-06-21T10:23:23.300Z,56.16
2018-06-21T10:24:26.989Z,56.29
2018-06-21T10:25:30.789Z,57.41
2018-06-21T10:26:34.594Z,56.94
2018-06-21T10:27:37.681Z,56.37
2018-06-21T10:28:40.530Z,56.21
2018-06-21T10:29:45.319Z,56.11
2018-06-21T10:30:48.378Z,56.12
2018-06-21T10:31:54.334Z,56.15
2018-06-21T10:32:57.732Z,55.93
2018-06-21T10:34:02.504Z,55.57
2018-06-21T10:35:06.016Z,56.17
2018-06-21T10:36:08.882Z,56.62
2018-06-21T10:37:11.671Z,55.21
2018-06-21T10:38:14.993Z,54.74
2018-06-21T10:39:18.627Z,53.84
2018-06-21T10:40:21.405Z,53.46
2018-06-21T10:41:24.282Z,54.32
2018-06-21T10:42:27.660Z,53.65
2018-06-21T10:43:31.418Z,52.92
2018-06-21T10:44:35.753Z,51.14
2018-06-21T10:45:38.573Z,51.78
2018-06-21T10:46:41.425Z,52.60
2018-06-21T10:47:44.251Z,52.49
2018-06-21T10:48:48.343Z,51.86
2018-06-21T10:49:51.401Z,51.72
2018-06-21T10:50:55.131Z,51.37
2018-06-21T10:51:58.779Z,51.61
2018-06-21T10:53:01.569Z,52.08
2018-06-21T10:54:04.533Z,53.66
2018-06-21T10:55:08.250Z,54.22
2018-06-21T10:56:11.522Z,54.68
2018-06-21T10:57:16.231Z,54.93
2018-06-21T10:58:19.123Z,53.76
2018-06-21T10:59:22.800Z,53.38
2018-06-21T11:00:25.581Z,53.31
2018-06-21T11:01:28.394Z,54.38
2018-06-21T11:02:31.231Z,53.87
2018-06-21T11:03:34.414Z,53.69
2018-06-21T11:04:38.333Z,53.71
2018-06-21T11:05:41.816Z,53.58
2018-06-21T11:06:44.591Z,53.18
2018-06-21T11:07:48.458Z,51.67
2018-06-21T11:08:51.379Z,50.89
2018-06-21T11:09:55.553Z,50.36
2018-06-21T11:10:59.233Z,49.66
2018-06-21T11:12:02.054Z,47.67
2018-06-21T11:13:05.786Z,47.47
2018-06-21T11:14:09.398Z,47.22
2018-06-21T11:15:14.261Z,47.72
2018-06-21T11:16:19.685Z,48.10
2018-06-21T11:17:22.505Z,47.52
2018-06-21T11:18:26.512Z,47.59
2018-06-21T11:19:32.283Z,46.49
2018-06-21T11:20:35.983Z,46.88
2018-06-21T11:21:38.829Z,46.54
2018-06-21T11:22:44.115Z,46.62
2018-06-21T11:23:47.260Z,47.21
2018-06-21T11:24:51.043Z,45.69
2018-06-21T11:25:55.030Z,46.49
2018-06-21T11:26:57.886Z,47.05
2018-06-21T11:28:00.713Z,46.83
2018-06-21T11:29:04.009Z,47.68
2018-06-21T11:30:06.842Z,47.39
2018-06-21T11:31:10.068Z,47.34
2018-06-21T11:32:12.888Z,47.62
2018-06-21T11:33:15.650Z,47.62
2018-06-21T11:34:19.634Z,45.95
2018-06-21T11:35:22.823Z,47.08
2018-06-21T11:36:26.293Z,45.90
2018-06-21T11:37:29.501Z,46.01
2018-06-21T11:38:32.268Z,44.83
2018-06-21T11:39:35.617Z,43.51
2018-06-21T11:41:53.670Z,42.46
2018-06-21T11:43:00.360Z,44.49
2018-06-21T11:49:33.824Z,42.75
2018-06-21T11:50:39.470Z,42.30
2018-06-21T11:51:58.510Z,41.41
2018-06-21T11:53:01.375Z,42.39
2018-06-21T11:54:04.405Z,42.56
2018-06-21T11:55:08.819Z,44.92
2018-06-21T11:56:11.647Z,44.13
2018-06-21T11:57:15.417Z,45.03
2018-06-21T11:58:18.486Z,45.08
2018-06-21T11:59:21.734Z,44.66
2018-06-21T12:00:25.111Z,45.25
2018-06-21T12:01:28.742Z,44.65
2018-06-21T12:02:33.065Z,44.01
2018-06-21T12:03:35.916Z,43.98
2018-06-21T12:04:39.366Z,44.23
2018-06-21T12:05:43.198Z,44.67
2018-06-21T12:06:47.777Z,44.49
2018-06-21T12:07:58.696Z,43.69
2018-06-21T12:09:02.091Z,42.92
2018-06-21T12:10:07.112Z,44.04
2018-06-21T12:11:09.969Z,44.22
2018-06-21T12:12:14.032Z,43.28
2018-06-21T12:13:17.442Z,43.17
2018-06-21T12:14:20.338Z,41.63
2018-06-21T12:15:24.380Z,40.60
2018-06-21T12:16:27.730Z,39.53
2018-06-21T12:17:30.573Z,40.00
2018-06-21T12:18:33.367Z,39.07
2018-06-21T12:19:36.517Z,40.06
2018-06-21T12:20:39.399Z,39.03
2018-06-21T12:21:45.408Z,40.66
2018-06-21T12:22:48.236Z,40.85
2018-06-21T12:23:52.950Z,41.37
2018-06-21T12:24:57.919Z,40.22
2018-06-21T12:26:00.750Z,41.04
2018-06-21T12:27:03.607Z,41.31
2018-06-21T12:28:09.383Z,40.31
2018-06-21T12:29:12.286Z,38.95
2018-06-21T12:30:15.148Z,38.58
2018-06-21T12:31:18.985Z,39.02
2018-06-21T12:32:22.754Z,38.53
2018-06-21T12:33:25.846Z,38.81
2018-06-21T12:34:32.102Z,37.89
2018-06-21T12:35:35.726Z,39.77
2018-06-21T12:36:38.506Z,39.67
2018-06-21T12:37:41.731Z,40.76
2018-06-21T12:38:44.734Z,39.99
2018-06-21T12:39:48.171Z,40.63
2018-06-21T12:40:51.570Z,40.98
2018-06-21T12:41:54.454Z,39.29
2018-06-21T12:42:57.281Z,39.33
2018-06-21T12:44:00.390Z,36.88
2018-06-21T12:45:03.242Z,37.48
2018-06-21T12:46:07.216Z,38.09
2018-06-21T12:47:10.210Z,39.24
2018-06-21T12:48:13.105Z,38.48
2018-06-21T12:49:15.951Z,40.33
2018-06-21T12:50:19.241Z,39.63
2018-06-21T12:51:22.135Z,38.35
2018-06-21T12:52:26.672Z,37.10
2018-06-21T12:53:30.376Z,36.29
2018-06-21T12:54:34.151Z,36.31
2018-06-21T12:55:37.306Z,35.23
2018-06-21T12:56:43.651Z,35.34
2018-06-21T12:57:46.670Z,35.78
2018-06-21T12:58:50.149Z,36.57
2018-06-21T12:59:53.036Z,36.98
2018-06-21T13:00:56.520Z,36.42
2018-06-21T13:01:59.737Z,37.42
2018-06-21T13:03:02.644Z,36.97
2018-06-21T13:04:06.166Z,36.54
2018-06-21T13:05:09.712Z,37.59
2018-06-21T13:06:12.822Z,37.01
2018-06-21T13:07:17.644Z,36.89
2018-06-21T13:08:21.318Z,36.42
2018-06-21T13:09:24.796Z,36.59
2018-06-21T13:10:34.422Z,36.91
2018-06-21T13:11:38.281Z,37.06
2018-06-21T13:12:42.248Z,36.91
2018-06-21T13:13:46.255Z,37.31
2018-06-21T13:14:49.643Z,36.47
2018-06-21T13:15:52.462Z,35.69
2018-06-21T13:16:57.035Z,36.19
2018-06-21T13:18:00.468Z,34.59
2018-06-21T13:19:03.353Z,34.68
2018-06-21T13:20:07.257Z,33.45
2018-06-21T13:21:11.369Z,33.12
2018-06-21T13:22:14.278Z,32.22
2018-06-21T13:23:17.669Z,32.11
2018-06-21T13:24:22.691Z,32.51
2018-06-21T13:25:25.817Z,33.41
2018-06-21T13:26:30.071Z,33.82
2018-06-21T13:27:33.289Z,33.99
2018-06-21T13:28:36.626Z,33.64
2018-06-21T13:29:40.580Z,33.47
2018-06-21T13:30:43.934Z,33.29
2018-06-21T13:31:48.688Z,33.56
2018-06-21T13:32:51.526Z,33.17
2018-06-21T13:33:58.434Z,33.60
2018-06-21T13:35:01.400Z,33.65
2018-06-21T13:36:04.308Z,33.46
2018-06-21T13:37:08.716Z,32.51
2018-06-21T13:38:12.170Z,33.46
2018-06-21T13:39:15.292Z,33.74
2018-06-21T13:40:19.602Z,34.31
2018-06-21T13:41:22.669Z,33.81
2018-06-21T13:42:27.992Z,34.17
2018-06-21T13:43:34.821Z,33.86
2018-06-21T13:44:37.689Z,33.71
2018-06-21T13:45:41.121Z,33.44
2018-06-21T13:46:47.290Z,34.01
2018-06-21T13:47:50.186Z,34.21
2018-06-21T13:48:54.119Z,34.85
2018-06-21T13:50:00.476Z,33.95
2018-06-21T13:51:03.650Z,34.05
2018-06-21T13:52:07.742Z,33.90
2018-06-21T13:53:10.984Z,33.23